createdAt,value
2023-02-27T00:00:01.721Z,99.90
2023-02-27T00:02:32.842Z,99.90
2023-02-27T00:05:04.006Z,99.90
2023-02-27T00:07:34.914Z,99.90
2023-02-27T00:10:08.574Z,99.90
2023-02-27T00:12:39.913Z,99.90
2023-02-27T00:15:19.394Z,99.90
2023-02-27T00:17:50.435Z,99.90
2023-02-27T00:20:26.014Z,99.90
2023-02-27T00:22:56.838Z,99.90
2023-02-27T00:25:27.742Z,99.90
2023-02-27T00:27:58.786Z,99.90
2023-02-27T00:30:29.804Z,99.90
2023-02-27T00:33:01.081Z,99.90
2023-02-27T00:35:31.957Z,99.90
2023-02-27T00:38:02.988Z,99.90
2023-02-27T00:40:36.042Z,99.90
2023-02-27T00:43:06.902Z,99.90
2023-02-27T00:45:37.892Z,99.90
2023-02-27T00:48:08.898Z,99.90
2023-02-27T00:50:39.872Z,99.90
2023-02-27T00:53:10.869Z,99.90
2023-02-27T00:55:42.963Z,99.90
2023-02-27T00:58:13.840Z,99.90
2023-02-27T01:00:44.841Z,99.90
2023-02-27T01:03:15.710Z,99.90
2023-02-27T01:05:46.806Z,99.90
2023-02-27T01:08:17.729Z,99.90
2023-02-27T01:10:48.688Z,99.90
2023-02-27T01:13:19.563Z,99.90
2023-02-27T01:15:50.482Z,99.90
2023-02-27T01:18:21.419Z,99.90
2023-02-27T01:20:54.897Z,99.90
2023-02-27T01:23:25.783Z,99.90
2023-02-27T01:25:56.662Z,99.90
2023-02-27T01:28:27.551Z,99.90
2023-02-27T01:30:58.529Z,99.90
2023-02-27T01:33:29.530Z,99.90
2023-02-27T01:36:00.431Z,99.90
2023-02-27T01:38:31.473Z,99.90
2023-02-27T01:41:02.743Z,99.90
2023-02-27T01:43:34.886Z,99.90
2023-02-27T01:46:05.900Z,99.90
2023-02-27T01:48:39.761Z,99.90
2023-02-27T01:51:21.562Z,99.90
2023-02-27T01:53:53.407Z,99.90
2023-02-27T01:56:29.208Z,99.90
2023-02-27T01:59:06.880Z,99.90
2023-02-27T02:01:39.149Z,99.90
2023-02-27T02:04:26.148Z,99.90
2023-02-27T02:07:07.374Z,99.90
2023-02-27T02:09:46.929Z,99.90
2023-02-27T02:12:22.828Z,99.90
2023-02-27T02:14:53.766Z,99.90
2023-02-27T02:17:48.152Z,99.90
2023-02-27T02:21:07.968Z,99.90
2023-02-27T02:24:11.918Z,99.90
2023-02-27T02:27:19.080Z,99.90
2023-02-27T02:30:05.708Z,99.90
2023-02-27T02:33:23.790Z,99.90
2023-02-27T02:36:38.266Z,99.90
2023-02-27T02:39:57.361Z,99.90
2023-02-27T02:42:46.660Z,99.90
2023-02-27T02:45:39.989Z,99.90
2023-02-27T02:48:22.161Z,99.90
2023-02-27T02:51:04.966Z,99.90
2023-02-27T02:53:54.386Z,99.90
2023-02-27T02:56:55.881Z,99.90
2023-02-27T02:59:32.834Z,99.90
2023-02-27T03:02:05.314Z,99.90
2023-02-27T03:05:01.934Z,99.90
2023-02-27T03:07:51.632Z,99.90
2023-02-27T03:10:49.894Z,99.90
2023-02-27T03:13:33.597Z,99.90
2023-02-27T03:16:31.581Z,99.90
2023-02-27T03:19:15.799Z,99.90
2023-02-27T03:21:59.945Z,99.90
2023-02-27T03:24:43.405Z,99.90
2023-02-27T03:27:16.517Z,99.90
2023-02-27T03:30:14.092Z,99.90
2023-02-27T03:33:19.556Z,99.90
2023-02-27T03:36:07.345Z,99.90
2023-02-27T03:39:22.470Z,99.90
2023-02-27T03:42:33.848Z,99.90
2023-02-27T03:45:13.602Z,99.90
2023-02-27T03:47:45.174Z,99.90
2023-02-27T03:50:16.647Z,99.90
2023-02-27T03:52:47.596Z,99.90
2023-02-27T03:55:25.175Z,99.90
2023-02-27T03:57:56.127Z,99.90
2023-02-27T04:00:27.688Z,99.90
2023-02-27T04:03:00.898Z,99.90
2023-02-27T04:05:31.810Z,99.90
2023-02-27T04:08:49.659Z,99.90
2023-02-27T04:11:55.564Z,99.90
2023-02-27T04:14:54.115Z,99.90
2023-02-27T04:17:29.194Z,99.90
2023-02-27T04:20:13.611Z,99.90
2023-02-27T04:22:56.869Z,99.90
2023-02-27T04:26:09.694Z,99.90
2023-02-27T04:29:11.796Z,99.90
2023-02-27T04:32:00.630Z,99.90
2023-02-27T04:34:51.103Z,99.90
2023-02-27T04:37:38.073Z,99.90
2023-02-27T04:40:36.217Z,99.90
2023-02-27T04:43:10.383Z,99.90
2023-02-27T04:45:44.975Z,99.90
2023-02-27T04:48:28.538Z,99.90
2023-02-27T04:51:12.655Z,99.90
2023-02-27T04:54:10.569Z,99.90
2023-02-27T04:56:47.597Z,99.90
2023-02-27T04:59:31.337Z,99.90
2023-02-27T05:02:16.417Z,99.90
2023-02-27T05:04:49.808Z,99.90
2023-02-27T05:07:27.253Z,99.90
2023-02-27T05:10:16.863Z,99.90
2023-02-27T05:13:04.641Z,99.90
2023-02-27T05:15:47.743Z,99.90
2023-02-27T05:18:21.805Z,99.90
2023-02-27T05:21:50.049Z,99.90
2023-02-27T05:24:34.063Z,99.90
2023-02-27T05:27:49.851Z,99.90
2023-02-27T05:30:32.130Z,99.90
2023-02-27T05:33:18.157Z,99.90
2023-02-27T05:36:11.509Z,99.90
2023-02-27T05:38:51.510Z,99.90
2023-02-27T05:41:30.136Z,99.90
2023-02-27T05:44:16.902Z,99.90
2023-02-27T05:47:06.141Z,99.90
2023-02-27T05:49:50.871Z,99.90
2023-02-27T05:52:25.747Z,99.90
2023-02-27T05:55:37.431Z,99.90
2023-02-27T05:58:27.372Z,99.90
2023-02-27T06:01:04.962Z,99.90
2023-02-27T06:03:38.191Z,99.90
2023-02-27T06:06:15.246Z,99.90
2023-02-27T06:08:46.290Z,99.90
2023-02-27T06:11:17.987Z,99.90
2023-02-27T06:13:49.100Z,99.90
2023-02-27T06:16:20.084Z,99.90
2023-02-27T06:18:50.993Z,99.90
2023-02-27T06:21:22.262Z,99.90
2023-02-27T06:23:53.109Z,99.90
2023-02-27T06:26:24.233Z,99.90
2023-02-27T06:28:55.214Z,99.90
2023-02-27T06:31:26.262Z,99.90
2023-02-27T06:33:57.885Z,99.90
2023-02-27T06:36:30.052Z,99.90
2023-02-27T06:39:01.458Z,99.90
2023-02-27T06:41:32.366Z,99.90
2023-02-27T06:44:03.407Z,99.90
2023-02-27T06:46:34.345Z,99.90
2023-02-27T06:49:05.267Z,99.90
2023-02-27T06:51:36.171Z,99.90
2023-02-27T06:54:08.101Z,99.90
2023-02-27T06:56:39.014Z,99.90
2023-02-27T06:59:09.874Z,99.90
2023-02-27T07:01:40.769Z,99.90
2023-02-27T07:04:15.551Z,99.90
2023-02-27T07:07:35.759Z,99.90
2023-02-27T07:09:37.754Z,99.90
2023-02-27T07:12:09.126Z,99.90
2023-02-27T07:14:40.000Z,99.90
2023-02-27T07:17:11.712Z,99.90
2023-02-27T07:19:42.645Z,99.90
2023-02-27T07:22:13.560Z,99.90
2023-02-27T07:24:44.411Z,99.90
2023-02-27T07:27:15.309Z,99.90
2023-02-27T07:29:46.487Z,99.90
2023-02-27T07:32:17.434Z,99.90
2023-02-27T07:34:48.343Z,99.90
2023-02-27T07:37:19.427Z,99.90
2023-02-27T07:39:50.634Z,99.90
2023-02-27T07:42:21.784Z,99.90
2023-02-27T07:44:52.631Z,99.90
2023-02-27T07:47:23.522Z,99.90
2023-02-27T07:49:55.066Z,99.90
2023-02-27T07:52:26.201Z,99.90
2023-02-27T07:54:57.084Z,99.90
2023-02-27T07:57:28.059Z,99.90
2023-02-27T07:59:59.243Z,99.90
2023-02-27T08:02:30.184Z,99.90
2023-02-27T08:05:01.111Z,99.90
2023-02-27T08:07:32.157Z,99.90
2023-02-27T08:10:07.718Z,99.90
2023-02-27T08:12:39.367Z,99.90
2023-02-27T08:15:10.751Z,99.90
2023-02-27T08:17:41.678Z,99.90
2023-02-27T08:20:14.132Z,99.90
2023-02-27T08:22:45.034Z,99.90
2023-02-27T08:25:16.108Z,99.90
2023-02-27T08:27:46.992Z,99.90
2023-02-27T08:30:18.356Z,99.90
2023-02-27T08:32:49.309Z,99.90
2023-02-27T08:35:20.276Z,99.90
2023-02-27T08:37:51.158Z,99.90
2023-02-27T08:40:22.055Z,99.90
2023-02-27T08:42:52.986Z,99.90
2023-02-27T08:45:24.001Z,99.90
2023-02-27T08:47:54.942Z,99.90
2023-02-27T08:50:25.821Z,99.90
2023-02-27T08:52:56.761Z,99.90
2023-02-27T08:55:29.229Z,99.90
2023-02-27T08:58:00.105Z,99.90
2023-02-27T09:00:32.471Z,99.90
2023-02-27T09:03:03.529Z,99.90
2023-02-27T09:05:35.469Z,99.90
2023-02-27T09:08:07.261Z,99.90
2023-02-27T09:10:38.200Z,99.90
2023-02-27T09:13:09.096Z,99.90
2023-02-27T09:15:40.128Z,99.90
2023-02-27T09:18:11.114Z,99.90
2023-02-27T09:20:42.020Z,99.90
2023-02-27T09:23:12.916Z,99.90
2023-02-27T09:25:44.046Z,99.90
2023-02-27T09:28:15.856Z,99.90
2023-02-27T09:30:46.874Z,99.90
2023-02-27T09:33:17.800Z,99.90
2023-02-27T09:35:48.708Z,99.90
2023-02-27T09:38:19.618Z,99.90
2023-02-27T09:40:53.287Z,99.90
2023-02-27T09:43:43.744Z,99.90
2023-02-27T09:46:22.895Z,99.90
2023-02-27T09:48:57.806Z,99.90
2023-02-27T09:51:29.843Z,99.90
2023-02-27T09:54:02.593Z,99.90
2023-02-27T09:56:42.404Z,99.90
2023-02-27T09:59:39.748Z,99.80
2023-02-27T10:02:52.894Z,99.90
2023-02-27T10:05:42.178Z,99.00
2023-02-27T10:08:22.012Z,98.70
2023-02-27T10:11:12.347Z,98.50
2023-02-27T10:14:00.121Z,97.80
2023-02-27T10:16:34.239Z,97.60
2023-02-27T10:19:14.701Z,97.10
2023-02-27T10:21:50.535Z,97.50
2023-02-27T10:24:28.379Z,97.10
2023-02-27T10:27:05.590Z,96.40
2023-02-27T10:29:41.667Z,96.30
2023-02-27T10:32:44.334Z,96.40
2023-02-27T10:35:53.753Z,97.00
2023-02-27T10:38:37.570Z,97.20
2023-02-27T10:41:14.332Z,97.60
2023-02-27T10:43:45.529Z,96.90
2023-02-27T10:46:38.628Z,96.20
2023-02-27T10:49:21.561Z,96.20
2023-02-27T10:52:14.529Z,96.00
2023-02-27T10:54:47.328Z,96.00
2023-02-27T10:57:27.702Z,95.20
2023-02-27T11:00:05.415Z,93.90
2023-02-27T11:02:40.938Z,92.90
2023-02-27T11:05:29.185Z,91.40
2023-02-27T11:08:27.839Z,90.70
2023-02-27T11:11:03.699Z,90.80
2023-02-27T11:13:41.356Z,91.00
2023-02-27T11:16:21.451Z,89.70
2023-02-27T11:18:54.366Z,89.90
2023-02-27T11:21:30.349Z,88.70
2023-02-27T11:24:04.173Z,88.30
2023-02-27T11:26:41.532Z,89.00
2023-02-27T11:29:20.601Z,88.70
2023-02-27T11:31:55.929Z,86.30
2023-02-27T11:34:39.429Z,85.30
2023-02-27T11:37:24.049Z,85.10
2023-02-27T11:40:15.741Z,85.00
2023-02-27T11:42:52.598Z,84.40
2023-02-27T11:46:11.942Z,82.70
2023-02-27T11:48:31.139Z,81.50
2023-02-27T11:51:11.218Z,80.30
2023-02-27T11:54:22.002Z,78.90
2023-02-27T11:57:00.596Z,79.20
2023-02-27T11:59:43.601Z,80.10
2023-02-27T12:02:42.730Z,78.50
2023-02-27T12:05:21.446Z,78.70
2023-02-27T12:08:07.503Z,79.40
2023-02-27T12:11:14.692Z,78.60
2023-02-27T12:13:53.899Z,77.90
2023-02-27T12:16:44.754Z,77.80
2023-02-27T12:19:26.989Z,78.40
2023-02-27T12:22:09.421Z,77.80
2023-02-27T12:25:07.711Z,77.60
2023-02-27T12:27:54.139Z,78.50
2023-02-27T12:30:29.875Z,76.70
2023-02-27T12:33:21.177Z,77.00
2023-02-27T12:36:02.055Z,76.00
2023-02-27T12:38:35.759Z,75.60
2023-02-27T12:41:30.483Z,75.20
2023-02-27T12:44:20.045Z,75.20
2023-02-27T12:47:06.516Z,75.70
2023-02-27T12:50:00.741Z,76.50
2023-02-27T12:52:45.118Z,76.60
2023-02-27T12:55:23.194Z,76.30
2023-02-27T12:58:25.249Z,73.50
2023-02-27T13:01:06.952Z,74.00
2023-02-27T13:04:05.747Z,74.50
2023-02-27T13:06:47.690Z,76.50
2023-02-27T13:09:35.323Z,76.50
2023-02-27T13:12:30.733Z,77.60
2023-02-27T13:15:11.767Z,76.70
2023-02-27T13:18:09.587Z,77.40
2023-02-27T13:20:51.791Z,76.60
2023-02-27T13:23:49.605Z,76.90
2023-02-27T13:26:30.864Z,77.70
2023-02-27T13:29:02.857Z,77.70
2023-02-27T13:32:01.799Z,76.90
2023-02-27T13:34:54.490Z,76.90
2023-02-27T13:37:25.537Z,75.10
2023-02-27T13:39:56.422Z,75.90
2023-02-27T13:42:27.396Z,76.80
2023-02-27T13:45:43.754Z,76.80
2023-02-27T13:48:33.434Z,77.10
2023-02-27T13:51:04.836Z,76.70
2023-02-27T13:53:35.731Z,76.90
2023-02-27T13:56:23.689Z,77.10
2023-02-27T13:58:56.306Z,78.50
2023-02-27T14:01:29.326Z,79.70
2023-02-27T14:04:19.337Z,80.50
2023-02-27T14:06:50.472Z,80.80
2023-02-27T14:09:22.432Z,81.50
2023-02-27T14:12:03.339Z,80.40
2023-02-27T14:14:45.766Z,78.80
2023-02-27T14:17:36.118Z,78.50
2023-02-27T14:20:27.361Z,78.30
2023-02-27T14:23:15.783Z,75.90
2023-02-27T14:25:54.799Z,76.10
2023-02-27T14:28:42.527Z,76.40
2023-02-27T14:31:30.392Z,76.40
2023-02-27T14:34:05.939Z,76.50
2023-02-27T14:36:46.270Z,77.10
2023-02-27T14:39:32.980Z,77.30
2023-02-27T14:42:53.216Z,78.80
2023-02-27T14:45:25.185Z,78.60
2023-02-27T14:47:57.164Z,78.70
2023-02-27T14:50:37.316Z,78.70
2023-02-27T14:53:26.192Z,79.40
2023-02-27T14:55:59.087Z,77.80
2023-02-27T14:58:29.974Z,78.40
2023-02-27T15:01:06.895Z,78.60
2023-02-27T15:03:45.845Z,79.00
2023-02-27T15:06:30.174Z,79.30
2023-02-27T15:09:01.831Z,78.50
2023-02-27T15:11:33.116Z,79.20
2023-02-27T15:14:06.611Z,79.00
2023-02-27T15:16:40.737Z,78.70
2023-02-27T15:19:29.339Z,79.50
2023-02-27T15:22:05.240Z,80.00
2023-02-27T15:24:49.577Z,80.50
2023-02-27T15:27:24.091Z,80.80
2023-02-27T15:30:00.333Z,80.90
2023-02-27T15:32:35.713Z,80.70
2023-02-27T15:35:22.441Z,80.50
2023-02-27T15:37:57.319Z,80.50
2023-02-27T15:40:31.992Z,80.10
2023-02-27T15:43:03.339Z,79.80
2023-02-27T15:45:36.253Z,79.90
2023-02-27T15:48:13.040Z,80.70
2023-02-27T15:51:07.698Z,80.40
2023-02-27T15:53:39.050Z,80.90
2023-02-27T15:56:13.460Z,81.20
2023-02-27T15:58:50.764Z,81.10
2023-02-27T16:01:29.528Z,80.80
2023-02-27T16:04:05.992Z,82.00
2023-02-27T16:06:40.940Z,81.80
2023-02-27T16:09:32.253Z,82.20
2023-02-27T16:12:12.628Z,83.00
2023-02-27T16:14:45.350Z,83.10
2023-02-27T16:17:52.777Z,83.00
2023-02-27T16:20:54.708Z,83.20
2023-02-27T16:23:29.129Z,82.80
2023-02-27T16:26:32.561Z,83.70
2023-02-27T16:29:33.675Z,83.70
2023-02-27T16:32:04.992Z,83.90
2023-02-27T16:34:46.563Z,84.20
2023-02-27T16:37:27.158Z,83.70
2023-02-27T16:39:58.016Z,83.70
2023-02-27T16:42:28.956Z,83.50
2023-02-27T16:44:59.842Z,82.60
2023-02-27T16:47:32.877Z,81.90
2023-02-27T16:50:04.080Z,82.50
2023-02-27T16:52:35.063Z,81.70
2023-02-27T16:55:06.491Z,81.60
2023-02-27T16:57:37.721Z,81.80
2023-02-27T17:00:14.043Z,81.00
2023-02-27T17:02:47.015Z,81.30
2023-02-27T17:05:19.165Z,81.40
2023-02-27T17:07:50.107Z,82.50
2023-02-27T17:10:24.603Z,82.50
2023-02-27T17:12:55.749Z,82.80
2023-02-27T17:15:29.106Z,82.80
2023-02-27T17:18:00.382Z,82.70
2023-02-27T17:20:31.354Z,82.80
2023-02-27T17:23:02.296Z,83.40
2023-02-27T17:25:33.157Z,83.40
2023-02-27T17:28:04.354Z,83.60
2023-02-27T17:30:37.161Z,83.60
2023-02-27T17:33:08.101Z,84.40
2023-02-27T17:35:39.046Z,84.30
2023-02-27T17:38:09.977Z,84.20
2023-02-27T17:40:41.625Z,84.30
2023-02-27T17:43:12.728Z,84.40
2023-02-27T17:45:43.971Z,84.90
2023-02-27T17:48:14.964Z,84.60
2023-02-27T17:50:45.840Z,84.50
2023-02-27T17:53:16.767Z,84.60
2023-02-27T17:55:47.664Z,84.60
2023-02-27T17:58:18.782Z,85.30
2023-02-27T18:00:49.617Z,84.90
2023-02-27T18:03:21.048Z,84.50
2023-02-27T18:05:52.604Z,85.00
2023-02-27T18:08:23.920Z,85.80
2023-02-27T18:10:55.871Z,85.50
2023-02-27T18:13:27.768Z,85.60
2023-02-27T18:15:58.810Z,85.70
2023-02-27T18:18:29.726Z,86.10
2023-02-27T18:21:03.431Z,86.30
2023-02-27T18:23:35.026Z,86.50
2023-02-27T18:26:07.087Z,86.30
2023-02-27T18:28:38.180Z,86.00
2023-02-27T18:31:26.631Z,86.40
2023-02-27T18:33:57.846Z,86.70
2023-02-27T18:36:30.440Z,86.80
2023-02-27T18:39:02.265Z,87.00
2023-02-27T18:41:34.231Z,87.30
2023-02-27T18:44:06.929Z,87.30
2023-02-27T18:46:39.594Z,87.50
2023-02-27T18:49:10.614Z,86.70
2023-02-27T18:51:42.015Z,86.70
2023-02-27T18:54:14.566Z,86.90
2023-02-27T18:56:45.584Z,87.30
2023-02-27T18:59:16.515Z,87.20
2023-02-27T19:01:47.514Z,87.40
2023-02-27T19:04:18.677Z,87.10
2023-02-27T19:06:49.680Z,87.30
2023-02-27T19:09:22.094Z,87.30
2023-02-27T19:11:53.577Z,87.40
2023-02-27T19:14:24.570Z,87.90
2023-02-27T19:16:56.920Z,87.90
2023-02-27T19:19:28.347Z,88.30
2023-02-27T19:21:59.357Z,88.50
2023-02-27T19:24:30.639Z,88.50
2023-02-27T19:27:02.038Z,88.60
2023-02-27T19:29:33.089Z,89.10
2023-02-27T19:32:07.579Z,89.90
2023-02-27T19:34:38.864Z,90.10
2023-02-27T19:37:10.205Z,90.10
2023-02-27T19:39:43.401Z,90.40
2023-02-27T19:42:15.836Z,90.20
2023-02-27T19:44:47.103Z,90.30
2023-02-27T19:47:19.175Z,90.10
2023-02-27T19:49:50.458Z,90.00
2023-02-27T19:52:21.553Z,89.30
2023-02-27T19:54:52.845Z,89.60
2023-02-27T19:57:23.817Z,89.90
2023-02-27T19:59:54.711Z,89.70
2023-02-27T20:02:26.423Z,89.50
2023-02-27T20:04:57.555Z,89.60
2023-02-27T20:07:29.058Z,99.90
2023-02-27T20:09:59.995Z,99.90
2023-02-27T20:12:31.228Z,97.80
2023-02-27T20:15:08.826Z,94.30
2023-02-27T20:17:42.193Z,93.90
2023-02-27T20:20:14.079Z,99.90
2023-02-27T20:22:45.206Z,94.90
2023-02-27T20:25:16.871Z,94.20
2023-02-27T20:27:47.832Z,93.90
2023-02-27T20:30:18.707Z,94.20
2023-02-27T20:32:49.693Z,94.30
2023-02-27T20:35:20.537Z,94.60
2023-02-27T20:37:53.147Z,94.60
2023-02-27T20:40:28.702Z,94.60
2023-02-27T20:42:59.647Z,94.50
2023-02-27T20:45:30.749Z,94.60
2023-02-27T20:48:01.735Z,94.70
2023-02-27T20:50:34.083Z,94.90
2023-02-27T20:53:05.145Z,94.80
2023-02-27T20:55:36.046Z,94.90
2023-02-27T20:58:06.940Z,95.10
2023-02-27T21:00:37.796Z,95.20
2023-02-27T21:03:08.771Z,95.00
2023-02-27T21:05:47.687Z,95.30
2023-02-27T21:08:18.806Z,95.00
2023-02-27T21:10:51.532Z,99.90
2023-02-27T21:13:23.889Z,99.90
2023-02-27T21:15:54.811Z,98.10
2023-02-27T21:18:25.750Z,95.10
2023-02-27T21:20:59.698Z,95.20
2023-02-27T21:23:30.904Z,98.00
2023-02-27T21:26:04.945Z,98.30
2023-02-27T21:28:46.815Z,99.40
2023-02-27T21:31:21.306Z,98.70
2023-02-27T21:33:53.974Z,97.70
2023-02-27T21:36:33.789Z,97.30
2023-02-27T21:39:07.266Z,97.00
2023-02-27T21:41:38.793Z,96.60
2023-02-27T21:44:12.975Z,95.10
2023-02-27T21:46:45.200Z,95.10
2023-02-27T21:49:19.584Z,95.20
2023-02-27T21:51:51.139Z,95.00
2023-02-27T21:54:22.446Z,95.00
2023-02-27T21:56:53.348Z,94.90
2023-02-27T21:59:25.822Z,94.80
2023-02-27T22:01:57.598Z,94.70
2023-02-27T22:04:28.567Z,94.80
2023-02-27T22:06:59.500Z,94.90
2023-02-27T22:09:30.466Z,94.90
2023-02-27T22:12:01.564Z,94.90
2023-02-27T22:14:32.424Z,95.20
2023-02-27T22:17:03.304Z,95.00
2023-02-27T22:19:34.187Z,95.10
2023-02-27T22:22:05.399Z,95.20
2023-02-27T22:24:36.257Z,95.30
2023-02-27T22:27:07.189Z,95.30
2023-02-27T22:29:38.491Z,95.50
2023-02-27T22:32:09.412Z,95.60
2023-02-27T22:34:40.312Z,95.60
2023-02-27T22:37:11.194Z,95.80
2023-02-27T22:39:42.078Z,95.80
2023-02-27T22:42:13.680Z,96.10
2023-02-27T22:44:44.627Z,96.30
2023-02-27T22:47:15.557Z,96.30
2023-02-27T22:49:46.463Z,96.50
2023-02-27T22:52:17.358Z,96.40
2023-02-27T22:54:50.047Z,96.70
2023-02-27T22:57:20.997Z,96.70
2023-02-27T22:59:52.145Z,97.00
2023-02-27T23:02:23.107Z,97.20
2023-02-27T23:04:53.971Z,97.20
2023-02-27T23:07:24.844Z,97.20
2023-02-27T23:09:55.665Z,97.30
2023-02-27T23:12:27.478Z,97.40
2023-02-27T23:14:58.476Z,97.60
2023-02-27T23:17:29.407Z,97.50
2023-02-27T23:20:00.274Z,97.50
2023-02-27T23:22:33.482Z,97.50
2023-02-27T23:25:07.228Z,97.80
2023-02-27T23:27:38.533Z,97.90
2023-02-27T23:30:10.556Z,98.10
2023-02-27T23:32:43.566Z,98.30
2023-02-27T23:35:16.274Z,98.20
2023-02-27T23:37:47.146Z,98.40
2023-02-27T23:40:23.663Z,98.50
2023-02-27T23:43:14.077Z,98.60
2023-02-27T23:45:45.010Z,98.80
2023-02-27T23:48:16.037Z,98.90
2023-02-27T23:50:46.983Z,98.90
2023-02-27T23:53:19.001Z,99.10
2023-02-27T23:55:49.917Z,99.00
2023-02-27T23:58:20.814Z,99.10
